createdAt,value
2022-09-26T00:00:00.190Z,13.2
2022-09-26T00:10:00.149Z,13.1
2022-09-26T00:20:00.170Z,13.2
2022-09-26T00:30:00.170Z,13.3
2022-09-26T00:40:00.119Z,13.0
2022-09-26T00:50:00.149Z,13.0
2022-09-26T01:00:00.161Z,13.3
2022-09-26T01:10:00.145Z,13.0
2022-09-26T01:20:00.148Z,13.0
2022-09-26T01:30:01.152Z,13.0
2022-09-26T01:40:00.150Z,13.1
2022-09-26T01:50:00.161Z,13.0
2022-09-26T02:00:00.215Z,13.0
2022-09-26T02:10:00.155Z,13.0
2022-09-26T02:20:00.158Z,12.9
2022-09-26T02:30:00.102Z,13.0
2022-09-26T02:40:00.149Z,12.9
2022-09-26T02:50:00.162Z,12.9
2022-09-26T03:00:00.241Z,13.1
2022-09-26T03:10:00.130Z,12.9
2022-09-26T03:20:00.186Z,12.9
2022-09-26T03:30:00.153Z,13.0
2022-09-26T03:40:00.207Z,12.9
2022-09-26T03:50:00.165Z,12.8
2022-09-26T04:10:00.106Z,12.7
2022-09-26T04:20:00.207Z,13.0
2022-09-26T04:30:00.135Z,12.6
2022-09-26T04:40:00.163Z,12.4
2022-09-26T04:50:00.129Z,12.4
2022-09-26T05:00:00.168Z,12.1
2022-09-26T05:10:00.153Z,12.0
2022-09-26T05:20:00.123Z,11.9
2022-09-26T05:30:00.118Z,11.9
2022-09-26T05:40:00.171Z,12.0
2022-09-26T05:50:00.172Z,12.1
2022-09-26T06:00:00.189Z,12.1
2022-09-26T06:10:00.160Z,12.5
2022-09-26T06:20:00.157Z,12.3
2022-09-26T06:30:00.119Z,12.4
2022-09-26T06:40:00.174Z,12.7
2022-09-26T06:50:00.142Z,12.9
2022-09-26T07:10:00.145Z,13.5
2022-09-26T07:20:01.548Z,13.6
2022-09-26T07:30:00.143Z,13.8
2022-09-26T07:40:01.940Z,13.9
2022-09-26T07:50:00.146Z,14.5
2022-09-26T08:00:01.649Z,14.6
2022-09-26T08:10:00.163Z,14.8
2022-09-26T08:20:00.165Z,14.8
2022-09-26T08:30:00.186Z,15.5
2022-09-26T08:40:00.183Z,15.9
2022-09-26T08:50:00.197Z,16.1
2022-09-26T09:00:00.192Z,15.5
2022-09-26T09:10:00.295Z,15.9
2022-09-26T09:20:00.169Z,16.7
2022-09-26T09:30:00.152Z,16.0
2022-09-26T09:40:00.197Z,16.3
2022-09-26T09:50:00.168Z,16.7
2022-09-26T10:00:01.960Z,17.0
2022-09-26T10:10:00.149Z,17.1
2022-09-26T10:20:00.209Z,17.7
2022-09-26T10:30:00.152Z,19.5
2022-09-26T10:40:00.196Z,18.2
2022-09-26T10:50:00.146Z,17.7
2022-09-26T11:00:00.170Z,17.4
2022-09-26T11:10:00.157Z,17.0
2022-09-26T11:20:00.147Z,17.1
2022-09-26T11:30:00.156Z,17.4
2022-09-26T11:40:00.174Z,19.4
2022-09-26T11:50:00.175Z,19.7
2022-09-26T12:00:00.174Z,17.8
2022-09-26T12:10:00.121Z,17.6
2022-09-26T12:20:00.139Z,19.5
2022-09-26T12:30:00.154Z,21.1
2022-09-26T12:40:00.161Z,18.5
2022-09-26T12:50:00.148Z,18.4
2022-09-26T13:00:00.175Z,18.3
2022-09-26T13:10:00.109Z,17.7
2022-09-26T13:20:00.172Z,17.8
2022-09-26T13:30:00.174Z,17.9
2022-09-26T13:40:00.172Z,18.0
2022-09-26T13:50:00.206Z,18.7
2022-09-26T14:00:00.192Z,18.5
2022-09-26T14:10:00.145Z,18.9
2022-09-26T14:20:00.187Z,21.9
2022-09-26T14:30:00.150Z,18.7
2022-09-26T14:40:00.214Z,17.9
2022-09-26T14:50:00.160Z,17.7
2022-09-26T15:00:00.184Z,17.5
2022-09-26T15:10:00.100Z,17.4
2022-09-26T15:20:00.163Z,17.8
2022-09-26T15:30:00.154Z,17.5
2022-09-26T15:40:00.265Z,17.6
2022-09-26T15:50:00.154Z,18.7
2022-09-26T16:00:00.138Z,17.6
2022-09-26T16:10:00.130Z,17.1
2022-09-26T16:20:00.292Z,16.9
2022-09-26T16:30:04.110Z,16.7
2022-09-26T16:40:00.157Z,16.4
2022-09-26T16:50:00.180Z,16.5
2022-09-26T17:00:00.150Z,16.1
2022-09-26T17:10:00.140Z,15.9
2022-09-26T17:20:00.268Z,15.6
2022-09-26T17:30:00.164Z,15.5
2022-09-26T17:40:00.195Z,15.2
2022-09-26T17:50:00.156Z,15.2
2022-09-26T18:00:02.054Z,15.1
2022-09-26T18:10:00.162Z,15.1
2022-09-26T18:20:00.141Z,15.1
2022-09-26T18:30:00.149Z,14.9
2022-09-26T18:40:03.761Z,14.7
2022-09-26T18:50:00.158Z,14.7
2022-09-26T19:00:00.212Z,14.4
2022-09-26T19:10:00.202Z,14.4
2022-09-26T19:20:00.153Z,14.4
2022-09-26T19:30:00.140Z,14.4
2022-09-26T19:40:00.187Z,14.2
2022-09-26T19:50:00.215Z,14.1
2022-09-26T20:00:00.188Z,13.9
2022-09-26T20:10:00.163Z,13.9
2022-09-26T20:20:00.165Z,13.9
2022-09-26T20:30:00.182Z,14.0
2022-09-26T20:40:00.187Z,13.9
2022-09-26T20:50:00.178Z,13.9
2022-09-26T21:00:00.167Z,14.2
2022-09-26T21:10:00.126Z,14.0
2022-09-26T21:20:00.210Z,13.8
2022-09-26T21:30:00.162Z,13.6
2022-09-26T21:40:00.188Z,13.4
2022-09-26T21:50:00.156Z,13.4
2022-09-26T22:00:00.235Z,13.4
2022-09-26T22:10:00.149Z,13.7
2022-09-26T22:20:00.219Z,13.7
2022-09-26T22:30:00.194Z,13.9
2022-09-26T22:40:00.178Z,13.9
2022-09-26T22:50:00.191Z,13.9
2022-09-26T23:00:00.243Z,13.9
2022-09-26T23:10:00.199Z,13.9
2022-09-26T23:20:00.200Z,13.9
2022-09-26T23:30:00.155Z,13.8
2022-09-26T23:40:00.172Z,13.8
2022-09-26T23:50:00.189Z,13.7
